createdAt,value
2023-04-29T00:01:23.505Z,101548.19
2023-04-29T00:03:50.679Z,101555.81
2023-04-29T00:06:18.297Z,101554.97
2023-04-29T00:08:45.312Z,101560.03
2023-04-29T00:11:12.278Z,101546.56
2023-04-29T00:13:41.265Z,101554.16
2023-04-29T00:16:10.551Z,101553.94
2023-04-29T00:18:38.262Z,101555.38
2023-04-29T00:21:06.418Z,101548.53
2023-04-29T00:23:34.071Z,101550.81
2023-04-29T00:26:01.045Z,101555.38
2023-04-29T00:28:27.948Z,101555.97
2023-04-29T00:30:54.886Z,101561.91
2023-04-29T00:33:21.957Z,101560.00
2023-04-29T00:35:48.943Z,101563.13
2023-04-29T00:38:15.890Z,101563.41
2023-04-29T00:40:44.053Z,101556.41
2023-04-29T00:43:11.098Z,101563.19
2023-04-29T00:45:37.956Z,101562.94
2023-04-29T00:48:05.317Z,101568.31
2023-04-29T00:50:32.534Z,101578.44
2023-04-29T00:53:00.666Z,101572.59
2023-04-29T00:55:27.808Z,101566.41
2023-04-29T00:57:54.932Z,101573.16
2023-04-29T01:00:26.693Z,101567.53
2023-04-29T01:02:55.265Z,101580.25
2023-04-29T01:05:22.236Z,101577.44
2023-04-29T01:07:52.312Z,101578.34
2023-04-29T01:10:23.133Z,101570.75
2023-04-29T01:13:00.275Z,101566.53
2023-04-29T01:15:31.125Z,101574.16
2023-04-29T01:18:07.489Z,101574.75
2023-04-29T01:20:35.501Z,101575.88
2023-04-29T01:23:02.538Z,101571.09
2023-04-29T01:25:29.444Z,101569.44
2023-04-29T01:28:03.104Z,101573.94
2023-04-29T01:30:33.332Z,101572.31
2023-04-29T01:33:00.599Z,101580.75
2023-04-29T01:35:29.976Z,101582.16
2023-04-29T01:37:58.616Z,101585.28
2023-04-29T01:40:30.772Z,101582.19
2023-04-29T01:43:12.209Z,101587.81
2023-04-29T01:45:41.798Z,101588.44
2023-04-29T01:48:10.049Z,101585.91
2023-04-29T01:50:37.036Z,101582.56
2023-04-29T01:53:04.036Z,101593.25
2023-04-29T01:55:30.959Z,101582.03
2023-04-29T01:57:58.057Z,101585.16
2023-04-29T02:00:25.102Z,101586.56
2023-04-29T02:02:52.259Z,101579.25
2023-04-29T02:05:19.449Z,101589.63
2023-04-29T02:07:46.449Z,101584.31
2023-04-29T02:10:13.754Z,101592.75
2023-04-29T02:12:41.459Z,101594.16
2023-04-29T02:15:09.044Z,101598.13
2023-04-29T02:17:36.116Z,101601.25
2023-04-29T02:20:03.127Z,101599.56
2023-04-29T02:22:30.131Z,101596.22
2023-04-29T02:24:57.433Z,101601.28
2023-04-29T02:27:24.469Z,101602.97
2023-04-29T02:29:52.229Z,101605.22
2023-04-29T02:32:20.548Z,101604.69
2023-04-29T02:34:47.559Z,101613.13
2023-04-29T02:37:14.552Z,101603.53
2023-04-29T02:39:41.837Z,101603.84
2023-04-29T02:42:08.937Z,101601.63
2023-04-29T02:44:35.983Z,101606.41
2023-04-29T02:47:03.041Z,101603.28
2023-04-29T02:49:29.987Z,101606.69
2023-04-29T02:51:56.941Z,101614.00
2023-04-29T02:54:23.928Z,101607.00
2023-04-29T02:56:50.850Z,101608.97
2023-04-29T02:59:18.199Z,101611.53
2023-04-29T03:01:45.268Z,101618.81
2023-04-29T03:04:12.611Z,101627.25
2023-04-29T03:06:39.745Z,101628.38
2023-04-29T03:09:06.797Z,101626.69
2023-04-29T03:11:34.011Z,101634.59
2023-04-29T03:14:01.840Z,101627.56
2023-04-29T03:16:29.706Z,101630.38
2023-04-29T03:18:56.572Z,101627.56
2023-04-29T03:21:23.647Z,101629.25
2023-04-29T03:23:50.707Z,101634.34
2023-04-29T03:26:17.625Z,101624.25
2023-04-29T03:28:44.617Z,101638.28
2023-04-29T03:31:17.023Z,101626.22
2023-04-29T03:33:44.243Z,101632.94
2023-04-29T03:36:11.371Z,101631.25
2023-04-29T03:38:38.382Z,101637.19
2023-04-29T03:41:05.913Z,101639.16
2023-04-29T03:43:33.008Z,101635.50
2023-04-29T03:46:00.113Z,101635.78
2023-04-29T03:48:27.111Z,101634.16
2023-04-29T03:50:54.006Z,101638.91
2023-04-29T03:53:22.118Z,101631.84
2023-04-29T03:55:49.162Z,101638.91
2023-04-29T03:58:16.306Z,101636.94
2023-04-29T04:00:43.574Z,101642.84
2023-04-29T04:03:10.591Z,101633.31
2023-04-29T04:05:37.819Z,101630.78
2023-04-29T04:08:05.011Z,101640.31
2023-04-29T04:10:34.233Z,101635.84
2023-04-29T04:13:01.141Z,101637.00
2023-04-29T04:15:28.149Z,101641.44
2023-04-29T04:17:55.185Z,101641.75
2023-04-29T04:20:22.207Z,101645.97
2023-04-29T04:22:49.421Z,101651.31
2023-04-29T04:25:16.427Z,101654.16
2023-04-29T04:27:43.350Z,101652.19
2023-04-29T04:30:10.613Z,101649.38
2023-04-29T04:32:37.729Z,101662.56
2023-04-29T04:35:05.073Z,101663.41
2023-04-29T04:37:32.011Z,101667.66
2023-04-29T04:39:58.899Z,101668.78
2023-04-29T04:42:26.240Z,101680.00
2023-04-29T04:44:53.635Z,101678.03
2023-04-29T04:47:20.645Z,101688.72
2023-04-29T04:49:47.604Z,101689.00
2023-04-29T04:52:15.120Z,101692.66
2023-04-29T04:54:42.074Z,101700.22
2023-04-29T04:57:09.046Z,101707.84
2023-04-29T04:59:35.981Z,101712.28
2023-04-29T05:02:02.998Z,101710.34
2023-04-29T05:04:30.263Z,101717.06
2023-04-29T05:06:57.354Z,101717.66
2023-04-29T05:09:24.422Z,101715.69
2023-04-29T05:11:51.484Z,101710.94
2023-04-29T05:14:21.480Z,101720.75
2023-04-29T05:16:48.512Z,101718.25
2023-04-29T05:19:15.553Z,101726.66
2023-04-29T05:21:43.001Z,101735.63
2023-04-29T05:24:10.036Z,101730.31
2023-04-29T05:26:37.067Z,101739.59
2023-04-29T05:29:04.303Z,101737.91
2023-04-29T05:31:31.665Z,101740.13
2023-04-29T05:33:58.920Z,101735.66
2023-04-29T05:36:25.855Z,101746.88
2023-04-29T05:38:52.814Z,101744.38
2023-04-29T05:41:19.826Z,101745.78
2023-04-29T05:43:46.786Z,101736.81
2023-04-29T05:46:13.786Z,101752.53
2023-04-29T05:48:40.958Z,101745.53
2023-04-29T05:51:10.408Z,101751.13
2023-04-29T05:53:38.729Z,101750.00
2023-04-29T05:56:08.641Z,101757.59
2023-04-29T05:58:38.588Z,101747.22
2023-04-29T06:01:05.583Z,101750.28
2023-04-29T06:03:35.305Z,101753.41
2023-04-29T06:06:03.139Z,101746.94
2023-04-29T06:08:30.498Z,101748.91
2023-04-29T06:10:57.399Z,101733.19
2023-04-29T06:13:25.342Z,101729.53
2023-04-29T06:15:55.394Z,101739.66
2023-04-29T06:18:22.451Z,101741.88
2023-04-29T06:20:49.348Z,101751.16
2023-04-29T06:23:16.332Z,101750.63
2023-04-29T06:25:43.532Z,101750.63
2023-04-29T06:28:10.676Z,101751.47
2023-04-29T06:30:37.673Z,101750.63
2023-04-29T06:33:04.763Z,101755.63
2023-04-29T06:35:31.844Z,101756.47
2023-04-29T06:37:58.872Z,101763.78
2023-04-29T06:40:25.942Z,101763.78
2023-04-29T06:42:52.960Z,101762.94
2023-04-29T06:45:19.888Z,101767.13
2023-04-29T06:47:47.209Z,101768.81
2023-04-29T06:50:17.191Z,101765.16
2023-04-29T06:52:44.166Z,101761.81
2023-04-29T06:55:12.176Z,101775.03
2023-04-29T06:57:39.153Z,101775.88
2023-04-29T07:00:06.808Z,101785.41
2023-04-29T07:02:34.320Z,101794.66
2023-04-29T07:05:01.541Z,101803.34
2023-04-29T07:07:28.625Z,101791.28
2023-04-29T07:09:55.921Z,101789.31
2023-04-29T07:12:23.208Z,101798.88
2023-04-29T07:14:50.245Z,101800.84
2023-04-29T07:17:17.280Z,101801.66
2023-04-29T07:19:44.177Z,101806.47
2023-04-29T07:22:13.462Z,101806.47
2023-04-29T07:24:40.394Z,101812.09
2023-04-29T07:27:07.792Z,101801.13
2023-04-29T07:29:38.957Z,101806.47
2023-04-29T07:32:05.932Z,101814.88
2023-04-29T07:34:32.954Z,101806.75
2023-04-29T07:36:59.869Z,101812.34
2023-04-29T07:39:27.322Z,101813.47
2023-04-29T07:41:56.120Z,101813.19
2023-04-29T07:44:23.302Z,101818.25
2023-04-29T07:46:50.352Z,101821.03
2023-04-29T07:49:17.372Z,101823.84
2023-04-29T07:51:45.407Z,101823.00
2023-04-29T07:54:14.640Z,101830.59
2023-04-29T07:56:41.605Z,101827.78
2023-04-29T07:59:08.794Z,101830.59
2023-04-29T08:01:36.028Z,101830.03
2023-04-29T08:04:03.407Z,101829.19
2023-04-29T08:06:31.202Z,101836.78
2023-04-29T08:08:58.252Z,101838.47
2023-04-29T08:11:28.098Z,101843.81
2023-04-29T08:13:57.489Z,101839.84
2023-04-29T08:16:26.489Z,101840.69
2023-04-29T08:18:53.838Z,101837.34
2023-04-29T08:21:21.089Z,101832.84
2023-04-29T08:23:48.429Z,101837.88
2023-04-29T08:26:15.647Z,101835.66
2023-04-29T08:28:42.880Z,101839.31
2023-04-29T08:31:16.918Z,101835.34
2023-04-29T08:33:43.935Z,101837.88
2023-04-29T08:36:10.994Z,101835.06
2023-04-29T08:38:38.349Z,101839.84
2023-04-29T08:41:07.947Z,101841.78
2023-04-29T08:43:35.797Z,101842.63
2023-04-29T08:46:03.586Z,101848.75
2023-04-29T08:48:33.285Z,101850.69
2023-04-29T08:51:03.113Z,101851.25
2023-04-29T08:53:30.423Z,101858.81
2023-04-29T08:55:59.205Z,101856.22
2023-04-29T08:58:27.028Z,101865.44
2023-04-29T09:00:54.413Z,101867.69
2023-04-29T09:03:32.353Z,101870.16
2023-04-29T09:06:01.421Z,101873.50
2023-04-29T09:08:28.775Z,101870.97
2023-04-29T09:10:56.610Z,101871.47
2023-04-29T09:13:25.892Z,101865.53
2023-04-29T09:15:53.009Z,101871.66
2023-04-29T09:18:29.539Z,101875.81
2023-04-29T09:20:56.795Z,101870.72
2023-04-29T09:23:37.164Z,101867.25
2023-04-29T09:26:04.204Z,101879.03
2023-04-29T09:28:31.460Z,101878.69
2023-04-29T09:31:06.874Z,101877.22
2023-04-29T09:33:49.882Z,101887.84
2023-04-29T09:36:35.777Z,101873.44
2023-04-29T09:39:03.112Z,101880.44
2023-04-29T09:41:30.547Z,101884.88
2023-04-29T09:44:07.534Z,101891.84
2023-04-29T09:46:34.999Z,101879.38
2023-04-29T09:49:02.514Z,101881.84
2023-04-29T09:51:33.251Z,101889.66
2023-04-29T09:54:01.813Z,101886.50
2023-04-29T09:56:31.242Z,101881.31
2023-04-29T09:59:08.324Z,101878.16
2023-04-29T10:01:36.156Z,101881.44
2023-04-29T10:04:04.099Z,101877.47
2023-04-29T10:06:31.504Z,101883.94
2023-04-29T10:08:58.784Z,101878.59
2023-04-29T10:11:27.296Z,101878.00
2023-04-29T10:13:54.274Z,101877.69
2023-04-29T10:16:30.250Z,101882.50
2023-04-29T10:19:00.484Z,101887.84
2023-04-29T10:21:29.726Z,101882.19
2023-04-29T10:23:57.898Z,101884.19
2023-04-29T10:26:27.858Z,101883.03
2023-04-29T10:28:56.594Z,101885.53
2023-04-29T10:31:26.237Z,101883.03
2023-04-29T10:33:56.220Z,101879.06
2023-04-29T10:36:24.109Z,101879.91
2023-04-29T10:38:54.774Z,101886.09
2023-04-29T10:41:27.280Z,101883.28
2023-04-29T10:43:54.729Z,101871.16
2023-04-29T10:46:23.472Z,101874.81
2023-04-29T10:48:53.014Z,101871.16
2023-04-29T10:51:32.093Z,101872.00
2023-04-29T10:54:01.369Z,101872.84
2023-04-29T10:56:38.381Z,101877.03
2023-04-29T10:59:05.832Z,101877.88
2023-04-29T11:01:50.641Z,101875.03
2023-04-29T11:04:19.601Z,101875.88
2023-04-29T11:06:47.948Z,101866.59
2023-04-29T11:09:19.816Z,101876.72
2023-04-29T11:11:47.107Z,101862.66
2023-04-29T11:14:15.170Z,101867.97
2023-04-29T11:21:36.718Z,101870.19
2023-04-29T11:24:04.939Z,101871.88
2023-04-29T11:26:32.451Z,101873.84
2023-04-29T11:28:59.456Z,101875.00
2023-04-29T11:31:28.779Z,101874.69
2023-04-29T11:33:55.935Z,101882.31
2023-04-29T11:36:22.979Z,101875.00
2023-04-29T11:38:50.084Z,101878.94
2023-04-29T11:41:17.294Z,101868.81
2023-04-29T11:43:46.713Z,101867.44
2023-04-29T11:46:14.935Z,101866.59
2023-04-29T11:48:49.723Z,101864.06
2023-04-29T11:51:17.973Z,101865.75
2023-04-29T11:53:45.378Z,101864.31
2023-04-29T11:56:15.805Z,101866.53
2023-04-29T11:58:43.583Z,101855.25
2023-04-29T12:01:10.910Z,101869.56
2023-04-29T12:03:38.315Z,101865.00
2023-04-29T12:06:07.845Z,101872.03
2023-04-29T12:08:35.426Z,101867.97
2023-04-29T12:11:02.646Z,101858.63
2023-04-29T12:13:31.332Z,101869.31
2023-04-29T12:15:59.815Z,101855.44
2023-04-29T12:18:28.199Z,101853.13
2023-04-29T12:20:57.242Z,101860.09
2023-04-29T12:23:29.040Z,101856.66
2023-04-29T12:25:57.230Z,101858.56
2023-04-29T12:28:25.044Z,101852.31
2023-04-29T12:30:54.339Z,101855.34
2023-04-29T12:33:23.552Z,101855.59
2023-04-29T12:35:51.361Z,101844.22
2023-04-29T12:38:22.356Z,101852.06
2023-04-29T12:40:51.360Z,101849.16
2023-04-29T12:43:19.337Z,101851.84
2023-04-29T12:45:46.688Z,101858.34
2023-04-29T12:48:25.426Z,101852.69
2023-04-29T12:50:58.989Z,101847.69
2023-04-29T12:53:26.588Z,101853.25
2023-04-29T12:55:53.842Z,101854.00
2023-04-29T12:58:20.945Z,101848.88
2023-04-29T13:00:47.908Z,101847.94
2023-04-29T13:03:15.448Z,101850.75
2023-04-29T13:05:43.412Z,101845.44
2023-04-29T13:08:10.604Z,101841.25
2023-04-29T13:10:37.629Z,101839.25
2023-04-29T13:13:04.586Z,101842.09
2023-04-29T13:15:31.770Z,101834.25
2023-04-29T13:17:59.149Z,101834.34
2023-04-29T13:20:26.263Z,101839.44
2023-04-29T13:22:53.759Z,101844.56
2023-04-29T13:25:21.053Z,101846.00
2023-04-29T13:27:48.716Z,101837.97
2023-04-29T13:30:16.431Z,101843.91
2023-04-29T13:32:49.448Z,101839.72
2023-04-29T13:35:21.627Z,101845.97
2023-04-29T13:37:49.641Z,101842.63
2023-04-29T13:40:20.620Z,101850.88
2023-04-29T13:42:50.509Z,101853.44
2023-04-29T13:45:23.878Z,101847.59
2023-04-29T13:50:57.531Z,101853.84
2023-04-29T13:56:28.476Z,101850.31
2023-04-29T14:01:17.266Z,101850.09
2023-04-29T14:03:46.721Z,101844.75
2023-04-29T14:06:13.892Z,101842.84
2023-04-29T14:08:41.154Z,101838.66
2023-04-29T14:11:08.255Z,101834.50
2023-04-29T14:13:35.144Z,101836.75
2023-04-29T14:16:04.287Z,101836.22
2023-04-29T14:18:32.192Z,101842.19
2023-04-29T14:21:00.174Z,101838.53
2023-04-29T14:23:27.398Z,101833.19
2023-04-29T14:25:58.900Z,101839.94
2023-04-29T14:28:33.917Z,101840.28
2023-04-29T14:31:01.515Z,101837.75
2023-04-29T14:33:28.452Z,101835.22
2023-04-29T14:35:55.386Z,101829.59
2023-04-29T14:38:22.382Z,101827.09
2023-04-29T14:40:49.574Z,101821.75
2023-04-29T14:43:16.581Z,101823.72
2023-04-29T14:45:44.468Z,101822.03
2023-04-29T14:48:12.098Z,101823.22
2023-04-29T14:50:39.027Z,101819.56
2023-04-29T14:53:07.705Z,101824.63
2023-04-29T14:55:34.923Z,101825.47
2023-04-29T14:58:05.301Z,101822.94
2023-04-29T15:00:32.360Z,101824.13
2023-04-29T15:02:59.418Z,101838.22
2023-04-29T15:05:26.551Z,101831.75
2023-04-29T15:07:54.026Z,101823.06
2023-04-29T15:10:21.309Z,101825.31
2023-04-29T15:12:48.354Z,101830.66
2023-04-29T15:15:15.387Z,101824.19
2023-04-29T15:17:42.473Z,101832.09
2023-04-29T15:20:10.790Z,101833.56
2023-04-29T15:22:37.988Z,101828.75
2023-04-29T15:25:05.417Z,101825.41
2023-04-29T15:27:32.415Z,101826.84
2023-04-29T15:29:59.463Z,101822.06
2023-04-29T15:32:31.791Z,101822.34
2023-04-29T15:35:02.989Z,101827.16
2023-04-29T15:37:30.707Z,101822.66
2023-04-29T15:40:00.138Z,101819.31
2023-04-29T15:42:27.208Z,101823.25
2023-04-29T15:44:56.667Z,101820.72
2023-04-29T15:47:23.701Z,101823.88
2023-04-29T15:49:53.804Z,101821.88
2023-04-29T15:52:20.985Z,101823.88
2023-04-29T15:54:47.985Z,101816.56
2023-04-29T15:57:15.194Z,101821.63
2023-04-29T15:59:42.095Z,101821.63
2023-04-29T16:02:11.321Z,101814.31
2023-04-29T16:04:38.744Z,101817.47
2023-04-29T16:07:05.958Z,101817.47
2023-04-29T16:09:36.649Z,101810.09
2023-04-29T16:12:03.688Z,101809.28
2023-04-29T16:14:30.666Z,101804.25
2023-04-29T16:16:58.025Z,101817.78
2023-04-29T16:19:25.393Z,101817.56
2023-04-29T16:21:54.827Z,101815.03
2023-04-29T16:24:22.255Z,101815.03
2023-04-29T16:26:50.429Z,101810.25
2023-04-29T16:29:18.916Z,101812.22
2023-04-29T16:31:46.607Z,101811.69
2023-04-29T16:34:13.822Z,101811.69
2023-04-29T16:36:40.807Z,101811.38
2023-04-29T16:39:07.714Z,101806.06
2023-04-29T16:41:34.868Z,101798.19
2023-04-29T16:44:01.741Z,101803.81
2023-04-29T16:46:30.782Z,101807.81
2023-04-29T16:48:57.808Z,101806.13
2023-04-29T16:51:27.952Z,101808.94
2023-04-29T16:53:55.263Z,101805.63
2023-04-29T16:56:23.150Z,101808.22
2023-04-29T16:59:01.879Z,101804.88
2023-04-29T17:01:29.688Z,101806.91
2023-04-29T17:03:56.831Z,101809.72
2023-04-29T17:06:24.222Z,101808.03
2023-04-29T17:08:51.696Z,101792.53
2023-04-29T17:11:18.907Z,101803.19
2023-04-29T17:13:46.774Z,101807.31
2023-04-29T17:16:14.612Z,101801.63
2023-04-29T17:18:42.032Z,101807.81
2023-04-29T17:21:09.496Z,101805.22
2023-04-29T17:23:36.760Z,101801.78
2023-04-29T17:26:04.785Z,101804.03
2023-04-29T17:28:34.800Z,101809.34
2023-04-29T17:31:02.860Z,101811.84
2023-04-29T17:33:35.008Z,101805.94
2023-04-29T17:36:02.393Z,101813.22
2023-04-29T17:38:30.028Z,101807.03
2023-04-29T17:40:56.861Z,101809.00
2023-04-29T17:43:23.970Z,101811.81
2023-04-29T17:45:50.972Z,101815.50
2023-04-29T17:48:19.694Z,101818.31
2023-04-29T17:50:47.236Z,101808.16
2023-04-29T17:53:14.608Z,101802.53
2023-04-29T17:55:42.100Z,101808.44
2023-04-29T17:58:09.439Z,101805.38
2023-04-29T18:00:36.465Z,101803.41
2023-04-29T18:03:03.839Z,101808.81
2023-04-29T18:05:30.811Z,101810.78
2023-04-29T18:07:57.778Z,101810.25
2023-04-29T18:10:24.748Z,101810.84
2023-04-29T18:12:51.645Z,101817.91
2023-04-29T18:15:18.704Z,101816.25
2023-04-29T18:17:45.719Z,101822.47
2023-04-29T18:20:15.178Z,101824.44
2023-04-29T18:22:42.125Z,101828.44
2023-04-29T18:25:09.414Z,101832.13
2023-04-29T18:27:36.652Z,101838.63
2023-04-29T18:30:03.972Z,101837.50
2023-04-29T18:32:30.983Z,101837.00
2023-04-29T18:34:57.952Z,101835.91
2023-04-29T18:37:24.898Z,101827.75
2023-04-29T18:39:51.938Z,101831.47
2023-04-29T18:42:19.272Z,101837.69
2023-04-29T18:44:47.938Z,101840.81
2023-04-29T18:47:14.999Z,101845.06
2023-04-29T18:49:41.943Z,101837.53
2023-04-29T18:52:09.125Z,101835.84
2023-04-29T18:54:36.058Z,101846.53
2023-04-29T18:57:02.956Z,101842.13
2023-04-29T18:59:30.212Z,101848.59
2023-04-29T19:01:57.277Z,101852.28
2023-04-29T19:04:24.416Z,101855.41
2023-04-29T19:06:51.532Z,101856.00
2023-04-29T19:09:18.413Z,101857.09
2023-04-29T19:11:47.187Z,101854.25
2023-04-29T19:14:14.023Z,101859.56
2023-04-29T19:16:41.043Z,101862.09
2023-04-29T19:19:07.891Z,101868.81
2023-04-29T19:21:35.109Z,101862.59
2023-04-29T19:24:02.056Z,101863.97
2023-04-29T19:26:29.626Z,101860.56
2023-04-29T19:28:57.630Z,101865.31
2023-04-29T19:31:24.478Z,101859.09
2023-04-29T19:33:52.791Z,101869.47
2023-04-29T19:36:19.658Z,101870.53
2023-04-29T19:38:49.543Z,101877.78
2023-04-29T19:41:16.637Z,101881.66
2023-04-29T19:43:43.621Z,101877.16
2023-04-29T19:46:13.776Z,101883.84
2023-04-29T19:48:40.679Z,101889.44
2023-04-29T19:51:08.729Z,101887.97
2023-04-29T19:53:36.543Z,101894.69
2023-04-29T19:56:03.564Z,101894.06
2023-04-29T19:58:30.454Z,101896.34
2023-04-29T20:00:57.315Z,101906.16
2023-04-29T20:03:24.351Z,101903.91
2023-04-29T20:05:51.341Z,101907.56
2023-04-29T20:08:18.318Z,101916.25
2023-04-29T20:10:46.338Z,101923.56
2023-04-29T20:13:13.263Z,101920.44
2023-04-29T20:15:40.172Z,101926.91
2023-04-29T20:18:07.210Z,101928.59
2023-04-29T20:20:34.167Z,101937.59
2023-04-29T20:23:01.178Z,101934.78
2023-04-29T20:25:28.948Z,101943.22
2023-04-29T20:27:58.180Z,101934.78
2023-04-29T20:30:26.506Z,101945.44
2023-04-29T20:32:53.456Z,101943.22
2023-04-29T20:35:21.290Z,101949.69
2023-04-29T20:37:48.394Z,101946.06
2023-04-29T20:40:15.555Z,101950.84
2023-04-29T20:42:42.559Z,101951.97
2023-04-29T20:45:10.028Z,101956.78
2023-04-29T20:47:36.873Z,101966.06
2023-04-29T20:50:04.995Z,101953.94
2023-04-29T20:52:34.584Z,101950.28
2023-04-29T20:55:01.802Z,101968.03
2023-04-29T20:57:28.664Z,101964.38
2023-04-29T20:59:55.984Z,101972.00
2023-04-29T21:02:23.031Z,101964.38
2023-04-29T21:04:49.922Z,101966.69
2023-04-29T21:07:16.927Z,101967.81
2023-04-29T21:09:43.931Z,101968.09
2023-04-29T21:12:10.812Z,101968.94
2023-04-29T21:14:39.027Z,101961.94
2023-04-29T21:17:06.939Z,101963.34
2023-04-29T21:19:35.325Z,101964.81
2023-04-29T21:22:02.261Z,101975.50
2023-04-29T21:24:31.736Z,101969.63
2023-04-29T21:26:58.624Z,101976.38
2023-04-29T21:29:25.672Z,101981.50
2023-04-29T21:31:54.375Z,101984.31
2023-04-29T21:34:21.512Z,101985.72
2023-04-29T21:36:48.434Z,101988.03
2023-04-29T21:39:15.346Z,101993.09
2023-04-29T21:41:43.887Z,101994.53
2023-04-29T21:44:11.710Z,101987.50
2023-04-29T21:46:38.887Z,101997.69
2023-04-29T21:49:05.940Z,101995.16
2023-04-29T21:51:34.291Z,101994.91
2023-04-29T21:54:01.503Z,101997.72
2023-04-29T21:56:28.401Z,101993.84
2023-04-29T21:58:55.460Z,101997.25
2023-04-29T22:01:32.227Z,101997.53
2023-04-29T22:03:59.349Z,101997.78
2023-04-29T22:06:26.318Z,101995.53
2023-04-29T22:08:53.220Z,102001.09
2023-04-29T22:11:22.044Z,102001.06
2023-04-29T22:13:49.311Z,102000.47
2023-04-29T22:16:16.737Z,102000.09
2023-04-29T22:18:43.722Z,102006.28
2023-04-29T22:21:11.016Z,102000.59
2023-04-29T22:23:39.573Z,102003.41
2023-04-29T22:26:08.793Z,102012.94
2023-04-29T22:28:35.812Z,102007.03
2023-04-29T22:31:02.784Z,102009.53
2023-04-29T22:33:30.293Z,102008.38
2023-04-29T22:35:57.136Z,102008.09
2023-04-29T22:38:24.077Z,102006.94
2023-04-29T22:40:51.976Z,102007.53
2023-04-29T22:43:19.142Z,102002.91
2023-04-29T22:45:55.393Z,102001.06
2023-04-29T22:48:23.253Z,102004.03
2023-04-29T22:50:52.324Z,102003.41
2023-04-29T22:53:19.500Z,102010.13
2023-04-29T22:55:50.428Z,102005.56
2023-04-29T22:58:17.265Z,102000.50
2023-04-29T23:00:45.362Z,101998.75
2023-04-29T23:03:12.332Z,101994.19
2023-04-29T23:05:39.996Z,102003.50
2023-04-29T23:08:07.297Z,101997.25
2023-04-29T23:10:34.719Z,102006.25
2023-04-29T23:13:03.219Z,102006.78
2023-04-29T23:15:30.215Z,102011.28
2023-04-29T23:18:00.947Z,102005.34
2023-04-29T23:20:27.758Z,102010.16
2023-04-29T23:22:54.681Z,102006.16
2023-04-29T23:25:21.576Z,102012.66
2023-04-29T23:27:48.421Z,102016.31
2023-04-29T23:30:17.587Z,102015.19
2023-04-29T23:32:44.504Z,102021.94
2023-04-29T23:35:12.385Z,102018.84
2023-04-29T23:37:39.371Z,102019.69
2023-04-29T23:40:07.346Z,102022.50
2023-04-29T23:42:34.541Z,102020.53
2023-04-29T23:45:01.397Z,102024.19
2023-04-29T23:47:28.341Z,102020.53
2023-04-29T23:49:55.371Z,102026.16
2023-04-29T23:52:22.608Z,102027.00
2023-04-29T23:54:49.451Z,102028.16
2023-04-29T23:57:18.646Z,102030.97
2023-04-29T23:59:45.953Z,102032.94
